Time;durP1;ratioP1;P1;durP2;ratioP2;P2;SDS_P1;SDS_P2;PMS_P1;PMS_P2;Temp;Humidity;BMP_temperature;BMP_pressure;BME280_temperature;BME280_humidity;BME280_pressure;Samples;Min_cycle;Max_cycle;Signal;HPM_P1;HPM_P2
2021/10/15 00:01:53;;;;;;;22.70;17.00;;;;;;;3.01;80.25;100369.14;1731634;80;21546;-55
2021/10/15 00:04:19;;;;;;;26.37;16.97;;;;;;;3.02;80.09;100370.44;1747165;80;21557;-55
2021/10/15 00:06:46;;;;;;;23.77;17.10;;;;;;;2.92;80.42;100370.03;1737127;80;21507;-55
2021/10/15 00:09:12;;;;;;;25.15;17.85;;;;;;;2.91;80.23;100370.88;1722753;80;22144;-56
2021/10/15 00:11:39;;;;;;;23.27;16.62;;;;;;;2.85;80.31;100372.19;1746619;81;21479;-55
2021/10/15 00:14:07;;;;;;;32.57;17.67;;;;;;;2.92;80.24;100365.69;1744562;80;21503;-56
2021/10/15 00:16:34;;;;;;;26.07;18.57;;;;;;;2.93;80.27;100366.55;1730500;80;21455;-55
2021/10/15 00:19:02;;;;;;;24.75;17.92;;;;;;;2.83;80.22;100366.13;1720181;80;21618;-56
2021/10/15 00:21:30;;;;;;;22.02;16.37;;;;;;;2.73;80.50;100363.52;1741952;80;21722;-56
2021/10/15 00:23:57;;;;;;;21.90;16.17;;;;;;;2.64;80.94;100362.66;1740096;80;20998;-56
2021/10/15 00:26:24;;;;;;;23.15;16.77;;;;;;;2.69;80.83;100355.71;1683111;83;21608;-56
2021/10/15 00:28:50;;;;;;;23.55;16.97;;;;;;;2.74;80.94;100356.59;1729551;80;21519;-56
2021/10/15 00:31:17;;;;;;;24.85;17.77;;;;;;;2.65;81.21;100355.28;1731366;80;21018;-56
2021/10/15 00:33:44;;;;;;;25.85;17.77;;;;;;;2.56;81.44;100347.03;1725753;80;21610;-56
2021/10/15 00:36:10;;;;;;;22.22;15.80;;;;;;;2.52;81.41;100355.28;1728145;80;21570;-56
2021/10/15 00:38:37;;;;;;;24.92;17.48;;;;;;;2.56;81.42;100350.93;1725298;80;21037;-56
2021/10/15 00:41:03;;;;;;;26.52;16.90;;;;;;;2.65;81.15;100356.58;1731068;81;21652;-56
2021/10/15 00:43:30;;;;;;;24.45;17.70;;;;;;;2.64;80.91;100349.67;1728730;80;21444;-56
2021/10/15 00:45:57;;;;;;;25.20;17.40;;;;;;;2.55;81.00;100354.84;1728650;80;21845;-55
2021/10/15 00:48:24;;;;;;;27.17;17.05;;;;;;;2.45;81.24;100355.23;1692144;83;21522;-56
2021/10/15 00:50:52;;;;;;;26.40;17.67;;;;;;;2.39;81.72;100357.39;1731316;80;21425;-55
2021/10/15 00:53:18;;;;;;;23.95;16.70;;;;;;;2.47;81.64;100360.03;1723328;80;21582;-56
2021/10/15 00:55:45;;;;;;;24.25;17.07;;;;;;;2.47;81.37;100357.44;1724558;80;21546;-56
2021/10/15 00:58:11;;;;;;;25.02;16.82;;;;;;;2.40;81.36;100358.28;1717619;82;22152;-56
2021/10/15 01:00:39;;;;;;;26.50;16.90;;;;;;;2.29;81.84;100348.73;1729346;80;21514;-56
2021/10/15 01:03:06;;;;;;;26.27;16.50;;;;;;;2.33;81.65;100346.56;1735252;82;21026;-57
2021/10/15 01:05:33;;;;;;;27.80;17.62;;;;;;;2.45;81.37;100350.05;1694464;82;21156;-57
2021/10/15 01:08:00;;;;;;;24.45;17.12;;;;;;;2.44;81.11;100353.53;1728633;80;21510;-57
2021/10/15 01:10:27;;;;;;;24.87;17.37;;;;;;;2.37;80.91;100348.73;1686393;83;21919;-57
2021/10/15 01:13:07;;;;;;;22.82;16.15;;;;;;;2.33;80.81;100351.76;1729756;80;21502;-56
2021/10/15 01:15:36;;;;;;;25.65;17.62;;;;;;;2.36;80.77;100352.66;1733916;81;21089;-56
2021/10/15 01:18:12;;;;;;;24.82;17.55;;;;;;;2.45;80.69;100352.23;1729952;81;21054;-56
2021/10/15 01:20:40;;;;;;;25.08;16.82;;;;;;;2.44;80.53;100349.63;1726108;81;21655;-56
2021/10/15 01:23:07;;;;;;;22.13;17.40;;;;;;;2.39;80.47;100343.56;1720485;81;21554;-55
2021/10/15 01:25:35;;;;;;;21.70;16.25;;;;;;;2.37;80.43;100345.29;1718647;81;21494;-56
2021/10/15 01:28:03;;;;;;;27.58;17.07;;;;;;;2.33;80.42;100338.78;1729430;81;21550;-56
2021/10/15 01:30:31;;;;;;;23.70;16.77;;;;;;;2.49;80.17;100345.33;1695134;82;21117;-57
2021/10/15 01:33:00;;;;;;;25.80;17.02;;;;;;;2.43;80.09;100342.69;1698750;83;21471;-56
2021/10/15 01:35:27;;;;;;;23.67;17.73;;;;;;;2.31;80.36;100338.36;1698078;83;22346;-56
2021/10/15 01:37:53;;;;;;;24.70;17.53;;;;;;;2.23;80.50;100337.05;1703967;82;21563;-55
2021/10/15 01:40:20;;;;;;;21.40;17.00;;;;;;;2.17;80.66;100349.13;1711278;82;21503;-56
2021/10/15 01:42:56;;;;;;;23.83;17.10;;;;;;;2.22;80.44;100345.67;1763260;80;21604;-56
2021/10/15 01:45:24;;;;;;;25.00;17.65;;;;;;;2.24;80.18;100346.58;1757186;80;21603;-55
2021/10/15 01:47:51;;;;;;;28.67;18.57;;;;;;;2.20;80.02;100338.77;1760275;80;21786;-54
2021/10/15 01:50:18;;;;;;;24.73;18.63;;;;;;;2.08;80.11;100345.66;1760968;80;21581;-55
2021/10/15 01:52:45;;;;;;;27.65;16.73;;;;;;;2.01;80.20;100348.22;1771372;80;21435;-55
2021/10/15 01:55:12;;;;;;;23.50;16.80;;;;;;;2.03;80.22;100344.77;1765940;80;21509;-55
2021/10/15 01:57:40;;;;;;;27.05;18.48;;;;;;;2.09;80.10;100353.88;1747151;80;21576;-56
2021/10/15 02:00:10;;;;;;;25.25;17.35;;;;;;;2.08;79.99;100355.17;1762092;80;21788;-56
2021/10/15 02:02:40;;;;;;;24.63;17.57;;;;;;;2.01;79.95;100352.11;1719138;81;21506;-56
2021/10/15 02:05:09;;;;;;;23.60;17.30;;;;;;;1.91;80.31;100351.22;1758464;80;21025;-55
2021/10/15 02:07:38;;;;;;;23.40;16.32;;;;;;;1.89;80.39;100347.76;1750151;80;21526;-55
2021/10/15 02:10:06;;;;;;;27.62;19.02;;;;;;;1.96;80.42;100353.41;1754262;80;21458;-55
2021/10/15 02:12:33;;;;;;;26.85;18.00;;;;;;;1.97;80.34;100350.38;1760480;80;21852;-56
2021/10/15 02:15:00;;;;;;;27.70;19.62;;;;;;;1.90;80.58;100343.88;1744406;80;21490;-55
2021/10/15 02:17:26;;;;;;;24.90;18.15;;;;;;;1.83;80.53;100344.71;1723620;81;21439;-56
2021/10/15 02:19:53;;;;;;;26.73;18.30;;;;;;;1.78;80.72;100349.00;1720169;81;21848;-56
2021/10/15 02:22:19;;;;;;;26.00;17.62;;;;;;;1.86;80.62;100351.19;1735390;81;21394;-56
2021/10/15 02:24:46;;;;;;;24.45;17.65;;;;;;;1.90;80.29;100349.47;1702413;81;21800;-56
2021/10/15 02:27:12;;;;;;;28.07;18.85;;;;;;;1.82;80.31;100349.89;1734251;81;21635;-56
2021/10/15 02:29:40;;;;;;;25.90;18.92;;;;;;;1.75;80.29;100351.57;1735022;81;21442;-56
2021/10/15 02:32:07;;;;;;;28.10;17.40;;;;;;;1.69;80.17;100345.92;1733742;81;21516;-56
2021/10/15 02:34:33;;;;;;;25.97;17.52;;;;;;;1.70;80.18;100344.23;1722479;81;21482;-56
2021/10/15 02:37:00;;;;;;;25.77;18.87;;;;;;;1.79;80.00;100342.97;1696205;83;21834;-56
2021/10/15 02:39:26;;;;;;;29.85;19.40;;;;;;;1.68;80.14;100340.77;1730452;81;21565;-57
2021/10/15 02:41:53;;;;;;;27.58;19.42;;;;;;;1.57;80.53;100348.92;1729650;81;21505;-56
2021/10/15 02:44:19;;;;;;;33.33;18.62;;;;;;;1.49;80.55;100343.26;1737242;81;21519;-56
2021/10/15 02:46:46;;;;;;;27.50;18.77;;;;;;;1.47;80.75;100347.56;1731886;81;21554;-56
2021/10/15 02:49:15;;;;;;;28.55;19.27;;;;;;;1.56;80.58;100346.73;1725912;81;21537;-56
2021/10/15 02:51:41;;;;;;;27.73;18.90;;;;;;;1.51;80.64;100340.67;1734292;81;21495;-56
2021/10/15 02:54:08;;;;;;;28.95;19.48;;;;;;;1.47;80.72;100337.61;1728261;81;22132;-56
2021/10/15 02:56:35;;;;;;;28.70;18.85;;;;;;;1.44;80.70;100339.77;1731104;81;21128;-57
2021/10/15 02:59:02;;;;;;;24.43;17.32;;;;;;;1.35;81.21;100340.56;1726493;81;21477;-57
2021/10/15 03:01:28;;;;;;;29.82;18.95;;;;;;;1.38;81.34;100340.17;1729140;81;21767;-56
2021/10/15 03:03:55;;;;;;;28.15;19.27;;;;;;;1.51;80.92;100347.16;1728931;82;21055;-56
2021/10/15 03:06:22;;;;;;;28.73;20.65;;;;;;;1.54;80.59;100344.16;1725918;81;21458;-56
2021/10/15 03:08:49;;;;;;;29.25;19.65;;;;;;;1.48;80.62;100349.28;1731931;81;21551;-56
2021/10/15 03:11:15;;;;;;;29.52;19.85;;;;;;;1.43;80.81;100344.94;1726103;81;21626;-56
2021/10/15 03:13:42;;;;;;;26.42;19.25;;;;;;;1.36;81.09;100340.16;1728392;81;21422;-55
2021/10/15 03:16:10;;;;;;;26.10;19.42;;;;;;;1.43;80.93;100346.23;1750559;80;25747;-56
2021/10/15 03:18:36;;;;;;;30.57;19.60;;;;;;;1.48;80.62;100340.65;1748025;80;21467;-56
2021/10/15 03:21:04;;;;;;;27.62;19.60;;;;;;;1.41;80.89;100346.21;1750959;80;21495;-56
2021/10/15 03:23:32;;;;;;;26.57;19.10;;;;;;;1.31;81.23;100342.70;1763063;80;21427;-56
2021/10/15 03:25:58;;;;;;;25.32;18.37;;;;;;;1.26;81.39;100340.95;1761250;80;22138;-56
2021/10/15 03:28:25;;;;;;;24.95;19.07;;;;;;;1.32;81.19;100343.16;1746792;80;21395;-56
2021/10/15 03:30:51;;;;;;;31.65;21.12;;;;;;;1.41;80.87;100341.03;1749309;80;21507;-56
2021/10/15 03:33:18;;;;;;;28.17;21.17;;;;;;;1.40;80.85;100339.31;1750230;80;21601;-59
2021/10/15 03:35:45;;;;;;;31.60;21.48;;;;;;;1.33;80.87;100338.84;1755907;80;21522;-56
2021/10/15 03:38:12;;;;;;;28.42;19.73;;;;;;;1.16;81.51;100330.95;1750787;80;21494;-56
2021/10/15 03:40:38;;;;;;;30.68;20.32;;;;;;;1.20;81.32;100337.89;1712188;82;21069;-56
2021/10/15 03:43:05;;;;;;;29.18;19.20;;;;;;;1.25;81.24;100336.64;1753335;80;21447;-56
2021/10/15 03:45:32;;;;;;;29.00;20.30;;;;;;;1.25;81.08;100334.91;1745805;81;21563;-56
2021/10/15 03:47:59;;;;;;;26.00;20.17;;;;;;;1.20;81.05;100332.70;1754080;80;21451;-56
2021/10/15 03:50:26;;;;;;;27.48;19.40;;;;;;;1.14;81.17;100340.45;1754168;80;22084;-56
2021/10/15 03:52:52;;;;;;;26.10;19.25;;;;;;;1.07;81.36;100338.23;1749211;80;21569;-56
2021/10/15 03:55:19;;;;;;;27.35;19.52;;;;;;;1.09;81.81;100344.31;1749750;80;21664;-56
2021/10/15 03:57:46;;;;;;;25.50;19.32;;;;;;;1.15;81.41;100349.97;1750664;80;20998;-56
2021/10/15 04:00:14;;;;;;;30.32;20.77;;;;;;;1.06;81.36;100354.64;1763999;80;20985;-56
2021/10/15 04:02:43;;;;;;;30.30;20.48;;;;;;;1.02;81.17;100359.36;1752650;80;21780;-56
2021/10/15 04:05:10;;;;;;;27.35;20.40;;;;;;;0.93;81.65;100351.09;1752459;80;21550;-56
2021/10/15 04:07:37;;;;;;;26.07;18.73;;;;;;;0.92;82.01;100357.54;1745256;80;21477;-56
2021/10/15 04:10:06;;;;;;;28.83;18.60;;;;;;;1.04;81.47;100349.88;1724729;82;21448;-56
2021/10/15 04:12:33;;;;;;;28.50;20.68;;;;;;;1.06;81.32;100343.42;1755221;80;21399;-56
2021/10/15 04:15:00;;;;;;;27.35;20.55;;;;;;;1.04;81.48;100346.00;1740152;81;21549;-55
2021/10/15 04:17:28;;;;;;;28.07;20.45;;;;;;;0.95;82.31;100344.63;1753498;80;20942;-55
2021/10/15 04:19:54;;;;;;;27.17;18.37;;;;;;;0.98;82.43;100351.14;1722671;82;21535;-55
2021/10/15 04:22:21;;;;;;;28.32;18.92;;;;;;;1.15;82.12;100358.59;1731081;81;21551;-55
2021/10/15 04:24:48;;;;;;;28.17;20.27;;;;;;;1.21;81.71;100369.87;1750328;80;21601;-55
2021/10/15 04:27:15;;;;;;;29.10;20.40;;;;;;;1.23;81.71;100370.30;1754592;80;21786;-58
2021/10/15 04:29:41;;;;;;;28.87;19.62;;;;;;;1.18;81.98;100365.51;1755361;80;21514;-55
2021/10/15 04:32:08;;;;;;;23.60;18.10;;;;;;;1.16;82.05;100364.20;1716902;82;20991;-55
2021/10/15 04:34:35;;;;;;;28.27;20.02;;;;;;;1.27;82.00;100361.69;1752486;80;21100;-55
2021/10/15 04:37:02;;;;;;;28.55;21.82;;;;;;;1.32;81.86;100357.84;1753038;80;21427;-56
2021/10/15 04:39:29;;;;;;;28.40;19.80;;;;;;;1.26;82.03;100359.08;1754016;80;22095;-56
2021/10/15 04:41:55;;;;;;;28.85;20.08;;;;;;;1.27;82.13;100362.98;1753234;80;21041;-56
2021/10/15 04:44:22;;;;;;;24.92;18.20;;;;;;;1.26;82.09;100356.48;1758154;80;21392;-56
2021/10/15 04:46:49;;;;;;;24.37;18.15;;;;;;;1.31;82.04;100362.58;1754838;80;21021;-56
2021/10/15 04:49:16;;;;;;;26.62;18.75;;;;;;;1.42;81.81;100358.33;1750628;80;21565;-56
2021/10/15 04:51:43;;;;;;;25.97;19.07;;;;;;;1.44;81.72;100363.09;1758335;80;21811;-56
2021/10/15 04:54:10;;;;;;;28.38;19.90;;;;;;;1.47;81.81;100364.41;1756422;80;21511;-56
2021/10/15 04:56:36;;;;;;;25.55;18.30;;;;;;;1.47;81.98;100367.41;1743020;80;21470;-56
2021/10/15 04:59:03;;;;;;;26.05;17.55;;;;;;;1.59;81.74;100366.20;1718022;82;21539;-56
2021/10/15 05:01:32;;;;;;;24.05;17.98;;;;;;;1.65;81.46;100366.66;1743175;80;21415;-56
2021/10/15 05:03:59;;;;;;;27.87;20.30;;;;;;;1.64;81.53;100378.77;1747819;80;21833;-56
2021/10/15 05:06:26;;;;;;;25.65;19.35;;;;;;;1.66;81.48;100371.86;1758960;80;21831;-56
2021/10/15 05:09:13;;;;;;;25.75;18.42;;;;;;;1.57;81.83;100367.06;1744819;80;21546;-56
2021/10/15 05:11:31;;;;;;;24.80;19.52;;;;;;;1.63;81.95;100370.53;1748977;80;21637;-57
2021/10/15 05:13:58;;;;;;;27.60;19.90;;;;;;;1.83;81.49;100369.34;1720175;82;21530;-57
2021/10/15 05:16:26;;;;;;;29.98;20.25;;;;;;;1.84;81.36;100371.06;1733153;81;27116;-56
2021/10/15 05:18:52;;;;;;;25.95;19.07;;;;;;;1.82;81.40;100368.89;1714153;82;20992;-56
2021/10/15 05:21:20;;;;;;;26.93;20.05;;;;;;;1.81;81.65;100368.88;1698758;83;21491;-56
2021/10/15 05:23:47;;;;;;;29.10;21.15;;;;;;;1.86;81.64;100366.75;1759863;80;21589;-56
2021/10/15 05:26:14;;;;;;;29.02;21.90;;;;;;;2.06;81.41;100377.65;1743380;80;21533;-56
2021/10/15 05:28:40;;;;;;;26.55;19.45;;;;;;;2.16;81.19;100377.25;1762610;80;21461;-56
2021/10/15 05:31:07;;;;;;;28.43;19.37;;;;;;;2.20;81.29;100375.95;1762243;80;21096;-56
2021/10/15 05:33:36;;;;;;;25.65;18.17;;;;;;;2.26;81.16;100377.29;1762214;80;21655;-57
2021/10/15 05:36:03;;;;;;;23.32;18.55;;;;;;;2.36;81.16;100385.10;1764075;80;21443;-57
2021/10/15 05:38:31;;;;;;;25.92;19.73;;;;;;;2.53;80.82;100383.40;1758399;80;21595;-56
2021/10/15 05:40:58;;;;;;;25.25;20.45;;;;;;;2.62;80.93;100379.52;1758539;80;21932;-56
2021/10/15 05:43:24;;;;;;;28.30;20.80;;;;;;;2.60;80.63;100382.96;1756470;80;21391;-57
2021/10/15 05:45:51;;;;;;;25.77;17.75;;;;;;;2.62;80.80;100379.93;1762365;80;21552;-57
2021/10/15 05:48:18;;;;;;;23.90;17.67;;;;;;;2.66;80.89;100389.48;1769803;80;21635;-57
2021/10/15 05:50:45;;;;;;;21.60;17.10;;;;;;;2.82;80.96;100379.96;1760680;80;21451;-57
2021/10/15 05:53:15;;;;;;;22.73;16.65;;;;;;;3.01;80.66;100375.63;1760043;80;21756;-57
2021/10/15 06:01:11;;;;;;;26.37;19.00;;;;;;;3.03;80.63;100377.80;1763151;80;21548;-58
2021/10/15 06:03:41;;;;;;;25.02;17.98;;;;;;;3.19;80.92;100379.53;1755762;80;21498;-58
2021/10/15 06:14:28;;;;;;;24.85;17.27;;;;;;;3.46;81.03;100389.45;1754506;80;21557;-55
2021/10/15 06:16:59;;;;;;;22.90;16.25;;;;;;;3.65;80.61;100394.17;1754601;80;21510;-54
2021/10/15 06:19:26;;;;;;;26.30;18.37;;;;;;;3.73;80.63;100389.84;1755379;80;22109;-55
2021/10/15 06:21:52;;;;;;;23.45;17.30;;;;;;;3.75;80.10;100395.90;1751357;80;21424;-57
2021/10/15 06:24:19;;;;;;;22.93;16.48;;;;;;;3.76;80.70;100389.81;1750068;80;21514;-58
2021/10/15 06:26:46;;;;;;;21.02;16.70;;;;;;;3.94;80.73;100393.20;1752256;80;21407;-58
2021/10/15 06:29:12;;;;;;;24.37;17.75;;;;;;;4.06;79.43;100398.38;1752152;80;21455;-57
2021/10/15 06:31:40;;;;;;;27.55;18.05;;;;;;;4.13;79.46;100395.33;1746574;80;21894;-60
2021/10/15 06:34:07;;;;;;;23.93;17.57;;;;;;;4.15;79.53;100389.23;1747542;80;21019;-58
2021/10/15 06:36:33;;;;;;;24.77;16.90;;;;;;;4.11;78.93;100391.42;1750522;80;21147;-59
2021/10/15 06:39:00;;;;;;;24.55;17.45;;;;;;;4.23;79.23;100391.35;1747997;80;21504;-59
2021/10/15 06:41:28;;;;;;;26.57;17.02;;;;;;;4.44;79.23;100383.86;1749447;80;21469;-57
2021/10/15 06:43:55;;;;;;;24.98;19.62;;;;;;;4.59;78.48;100384.65;1758598;80;21864;-59
2021/10/15 06:46:21;;;;;;;27.20;20.02;;;;;;;4.60;78.13;100376.83;1749048;80;21587;-56
2021/10/15 06:48:48;;;;;;;21.40;17.07;;;;;;;4.72;78.41;100382.38;1743786;80;21499;-56
2021/10/15 06:51:15;;;;;;;18.90;16.60;;;;;;;4.82;77.70;100386.67;1758559;80;21545;-58
2021/10/15 06:53:42;;;;;;;21.87;17.37;;;;;;;5.03;77.53;100383.03;1754692;80;21028;-58
2021/10/15 06:56:09;;;;;;;21.77;17.70;;;;;;;5.15;76.67;100376.84;1746920;80;21634;-57
2021/10/15 06:58:35;;;;;;;26.33;18.95;;;;;;;5.24;75.75;100378.50;1750032;80;21624;-56
2021/10/15 07:01:03;;;;;;;22.35;17.87;;;;;;;5.32;75.41;100386.25;1746362;80;21671;-57
2021/10/15 07:03:29;;;;;;;24.15;18.27;;;;;;;5.38;75.27;100379.67;1749813;80;21586;-57
2021/10/15 07:05:56;;;;;;;22.17;16.48;;;;;;;5.51;75.38;100376.05;1751108;80;21553;-57
2021/10/15 07:08:24;;;;;;;20.57;17.05;;;;;;;5.76;74.95;100379.25;1752727;80;22022;-57
2021/10/15 07:10:52;;;;;;;21.73;17.98;;;;;;;5.93;74.62;100376.89;1748113;80;20949;-57
2021/10/15 07:13:19;;;;;;;22.75;17.95;;;;;;;6.01;73.55;100377.27;1756334;80;21566;-57
2021/10/15 07:15:46;;;;;;;21.55;17.55;;;;;;;6.06;73.52;100374.58;1742896;80;21453;-58
2021/10/15 07:18:14;;;;;;;22.17;16.87;;;;;;;6.15;72.94;100382.75;1721183;81;21069;-58
2021/10/15 07:20:42;;;;;;;21.20;16.93;;;;;;;6.31;72.26;100381.67;1685294;83;21533;-58
2021/10/15 07:23:11;;;;;;;22.17;17.55;;;;;;;6.49;71.11;100375.31;1717225;81;21616;-60
2021/10/15 07:25:39;;;;;;;22.13;17.80;;;;;;;6.57;70.29;100380.00;1717104;81;21545;-58
2021/10/15 07:28:06;;;;;;;;;;;;;;;6.69;70.91;100377.64;1719247;81;21137;-60
2021/10/15 07:30:33;;;;;;;22.93;17.27;;;;;;;6.78;69.49;100372.28;1724065;81;20456;-59
2021/10/15 07:33:00;;;;;;;21.97;17.50;;;;;;;6.89;70.10;100371.23;1728597;80;21596;-60
2021/10/15 07:35:26;;;;;;;23.27;18.12;;;;;;;7.04;69.19;100370.13;1729940;81;21424;-60
2021/10/15 07:37:53;;;;;;;19.45;15.45;;;;;;;7.14;68.00;100371.67;1732762;81;21498;-60
2021/10/15 07:40:21;;;;;;;20.02;16.50;;;;;;;7.31;68.32;100367.04;1727111;81;21530;-58
2021/10/15 07:42:48;;;;;;;20.15;15.85;;;;;;;7.52;67.22;100371.02;1724119;81;20925;-60
2021/10/15 07:45:15;;;;;;;19.40;15.65;;;;;;;7.68;66.46;100364.17;1731421;81;21842;-61
2021/10/15 07:47:42;;;;;;;21.53;16.63;;;;;;;7.80;66.60;100366.11;1726254;81;21498;-58
2021/10/15 07:50:09;;;;;;;22.62;16.95;;;;;;;7.91;65.80;100367.21;1733434;81;22324;-60
2021/10/15 07:52:40;;;;;;;22.40;16.13;;;;;;;7.98;65.85;100364.00;1727858;81;21495;-59
2021/10/15 07:55:09;;;;;;;18.80;15.93;;;;;;;8.03;65.37;100364.78;1723213;81;21029;-59
2021/10/15 07:57:36;;;;;;;21.17;16.32;;;;;;;8.05;64.58;100362.98;1726731;81;21695;-62
2021/10/15 08:00:06;;;;;;;20.88;15.78;;;;;;;8.02;63.84;100367.42;1729337;81;21387;-58
2021/10/15 08:02:34;;;;;;;20.25;15.32;;;;;;;8.07;63.60;100366.44;1731980;81;21372;-59
2021/10/15 08:05:01;;;;;;;20.35;16.02;;;;;;;8.14;63.09;100367.18;1722128;81;21622;-59
2021/10/15 08:07:27;;;;;;;22.42;16.02;;;;;;;8.25;63.81;100364.30;1728340;81;21509;-61
2021/10/15 08:09:54;;;;;;;19.25;14.83;;;;;;;8.33;64.00;100358.02;1729713;81;21756;-59
2021/10/15 08:12:22;;;;;;;20.52;13.80;;;;;;;8.50;62.84;100356.36;1726191;81;21538;-62
2021/10/15 08:14:49;;;;;;;18.52;13.13;;;;;;;8.69;62.86;100355.48;1729310;81;21621;-61
2021/10/15 08:17:16;;;;;;;15.35;13.58;;;;;;;8.87;61.24;100350.26;1752373;80;21549;-60
2021/10/15 08:19:43;;;;;;;16.93;13.22;;;;;;;9.09;60.77;100349.70;1753223;80;21534;-60
2021/10/15 08:22:10;;;;;;;16.60;12.77;;;;;;;9.24;57.86;100356.33;1757317;80;21732;-61
2021/10/15 08:24:37;;;;;;;13.78;12.10;;;;;;;9.39;58.05;100351.12;1752596;80;21276;-60
2021/10/15 08:27:05;;;;;;;16.62;12.25;;;;;;;9.53;58.01;100348.97;1757584;80;21479;-60
2021/10/15 08:29:37;;;;;;;15.43;12.53;;;;;;;9.68;56.35;100347.27;1751433;80;21683;-60
2021/10/15 08:32:00;;;;;;;18.75;11.57;;;;;;;9.82;56.64;100346.02;1754784;80;21435;-60
2021/10/15 08:34:27;;;;;;;15.15;11.73;;;;;;;9.90;54.63;100342.70;1751840;80;21479;-59
2021/10/15 08:36:53;;;;;;;13.95;11.75;;;;;;;10.01;53.99;100343.71;1751713;80;21631;-61
2021/10/15 08:39:23;;;;;;;15.80;12.25;;;;;;;10.10;54.79;100339.04;1754870;80;21416;-60
2021/10/15 08:41:49;;;;;;;14.45;11.95;;;;;;;10.20;54.77;100330.88;1740045;80;21525;-60
2021/10/15 08:44:17;;;;;;;14.90;11.90;;;;;;;10.28;53.85;100332.81;1751837;80;21557;-60
2021/10/15 08:46:44;;;;;;;13.35;11.73;;;;;;;10.40;54.07;100323.75;1753634;80;21843;-60
2021/10/15 08:49:11;;;;;;;13.62;11.75;;;;;;;10.49;54.53;100320.37;1749280;80;21482;-60
2021/10/15 08:51:38;;;;;;;12.85;11.53;;;;;;;10.63;53.21;100328.27;1751230;80;21561;-60
2021/10/15 08:54:05;;;;;;;15.58;11.22;;;;;;;10.75;52.25;100325.69;1748584;80;21471;-60
2021/10/15 08:56:34;;;;;;;14.58;11.45;;;;;;;10.84;51.81;100322.30;1752122;80;22192;-60
2021/10/15 08:59:04;;;;;;;11.18;10.08;;;;;;;10.90;51.55;100315.50;1753829;80;21981;-59
2021/10/15 09:01:44;;;;;;;10.85;9.50;;;;;;;10.98;51.82;100311.76;1761446;80;21483;-60
2021/10/15 09:04:18;;;;;;;10.93;9.35;;;;;;;11.07;50.56;100308.82;1733280;80;21572;-58
2021/10/15 09:06:48;;;;;;;11.45;9.10;;;;;;;11.15;48.96;100313.38;1764227;80;21694;-60
2021/10/15 09:09:29;;;;;;;10.95;9.43;;;;;;;11.26;48.87;100309.92;1762696;80;21569;-60
2021/10/15 09:12:16;;;;;;;12.37;8.73;;;;;;;11.41;49.61;100306.33;1751632;80;21348;-60
2021/10/15 09:14:46;;;;;;;;;;;;;;;11.49;46.75;100305.15;1765922;80;21554;-60
2021/10/15 09:17:18;;;;;;;10.32;8.35;;;;;;;11.61;46.99;100306.94;1753502;80;20450;-60
2021/10/15 09:19:53;;;;;;;11.88;9.13;;;;;;;11.69;46.27;100304.87;1707042;82;21531;-60
2021/10/15 09:22:28;;;;;;;17.98;12.07;;;;;;;11.77;47.17;100296.67;1724858;82;21497;-60
2021/10/15 09:25:05;;;;;;;9.83;7.60;;;;;;;11.90;46.94;100304.55;1750346;80;21796;-60
2021/10/15 09:27:40;;;;;;;7.67;6.85;;;;;;;12.08;45.73;100301.22;1740149;80;21562;-60
2021/10/15 09:30:13;;;;;;;12.20;7.62;;;;;;;12.22;45.63;100298.07;1752457;80;21613;-60
2021/10/15 09:32:58;;;;;;;9.05;7.45;;;;;;;12.29;43.40;100303.94;1751882;80;21502;-60
2021/10/15 09:35:28;;;;;;;8.18;6.78;;;;;;;12.41;44.19;100299.52;1723095;82;21424;-60
2021/10/15 09:38:02;;;;;;;8.18;6.80;;;;;;;12.50;43.68;100295.63;1763012;80;21763;-60
2021/10/15 09:40:39;;;;;;;8.98;6.47;;;;;;;12.54;43.06;100290.63;1745356;80;21611;-61
2021/10/15 09:43:09;;;;;;;5.25;4.75;;;;;;;12.65;43.47;100281.81;1748400;80;21460;-60
2021/10/15 09:45:45;;;;;;;7.12;5.83;;;;;;;12.71;39.81;100280.70;1742907;80;21646;-61
2021/10/15 09:48:36;;;;;;;9.05;5.92;;;;;;;12.77;40.45;100279.59;1726363;82;21507;-63
2021/10/15 09:51:15;;;;;;;6.05;5.40;;;;;;;12.87;41.39;100273.02;1710671;82;22123;-60
2021/10/15 09:54:10;;;;;;;6.50;5.28;;;;;;;12.94;40.46;100270.95;1750439;80;21534;-60
2021/10/15 09:56:44;;;;;;;11.60;5.83;;;;;;;13.04;40.08;100272.30;1715111;82;21492;-59
2021/10/15 09:59:11;;;;;;;7.65;5.50;;;;;;;13.01;39.75;100269.30;1763412;80;21557;-59
2021/10/15 10:01:38;;;;;;;7.23;5.37;;;;;;;13.04;39.59;100260.42;1750921;80;21542;-59
2021/10/15 10:04:06;;;;;;;8.67;5.33;;;;;;;13.02;38.85;100257.84;1739430;80;21687;-59
2021/10/15 10:06:33;;;;;;;5.95;4.97;;;;;;;13.14;39.25;100263.52;1720340;82;21415;-59
2021/10/15 10:09:00;;;;;;;6.62;5.25;;;;;;;13.25;39.93;100255.51;1718535;82;21411;-59
2021/10/15 10:11:30;;;;;;;5.47;4.97;;;;;;;13.33;38.38;100255.67;1718901;82;21514;-59
2021/10/15 10:13:56;;;;;;;9.75;4.92;;;;;;;13.42;38.77;100260.55;1716080;82;21589;-60
2021/10/15 10:16:27;;;;;;;6.33;5.72;;;;;;;13.56;39.35;100251.98;1703506;82;21586;-59
2021/10/15 10:18:58;;;;;;;8.20;5.80;;;;;;;13.65;38.59;100247.61;1723946;81;21573;-59
2021/10/15 10:21:30;;;;;;;7.15;5.58;;;;;;;13.66;38.42;100245.84;1740782;80;21522;-59
2021/10/15 10:24:03;;;;;;;7.83;5.17;;;;;;;13.71;39.17;100242.50;1721574;81;21621;-59
2021/10/15 10:26:49;;;;;;;6.37;5.42;;;;;;;13.73;38.92;100245.92;1737623;80;21628;-59
2021/10/15 10:29:16;;;;;;;6.17;5.30;;;;;;;13.70;38.85;100246.94;1733367;80;21871;-61
2021/10/15 10:31:43;;;;;;;6.10;5.47;;;;;;;13.75;39.02;100238.78;1727681;80;21494;-59
2021/10/15 10:34:24;;;;;;;;;;;;;;;13.76;39.54;100240.04;1730085;81;21588;-60
2021/10/15 10:37:07;;;;;;;6.97;6.28;;;;;;;13.79;38.72;100234.63;1740658;80;20487;-61
2021/10/15 10:42:24;;;;;;;8.28;7.10;;;;;;;13.87;39.50;100225.01;1780448;79;23343;-61
2021/10/15 10:44:54;;;;;;;7.40;6.67;;;;;;;13.81;39.04;100231.44;1749432;80;21480;-60
2021/10/15 10:47:25;;;;;;;7.80;6.53;;;;;;;13.81;39.45;100224.84;1764445;80;21852;-60
2021/10/15 10:50:12;;;;;;;7.17;5.78;;;;;;;13.89;40.16;100215.22;1755309;80;21467;-60
2021/10/15 10:52:51;;;;;;;7.47;6.37;;;;;;;13.98;39.49;100228.00;1766958;80;21632;-60
2021/10/15 10:55:43;;;;;;;6.42;5.78;;;;;;;14.04;38.61;100228.65;1760075;80;21499;-59
2021/10/15 10:58:31;;;;;;;7.08;5.70;;;;;;;14.02;38.37;100224.27;1694526;80;21472;-62
2021/10/15 11:01:18;;;;;;;;;;;;;;;14.09;38.77;100216.04;1761540;80;21816;-60
2021/10/15 11:03:46;;;;;;;5.58;5.05;;;;;;;14.16;38.86;100223.59;1773186;80;20438;-60
2021/10/15 11:06:13;;;;;;;6.22;5.17;;;;;;;14.16;37.67;100213.50;1762661;80;20993;-60
2021/10/15 11:08:42;;;;;;;6.12;5.53;;;;;;;14.16;38.63;100213.02;1724948;81;21524;-60
2021/10/15 11:11:33;;;;;;;6.28;5.08;;;;;;;14.12;38.35;100211.46;1706461;83;21606;-60
2021/10/15 11:13:56;;;;;;;11.22;6.05;;;;;;;14.14;38.29;100208.75;1729850;81;21818;-60
2021/10/15 11:16:26;;;;;;;10.30;6.93;;;;;;;14.22;38.13;100197.32;1683860;82;21541;-60
2021/10/15 11:18:53;;;;;;;5.37;4.87;;;;;;;14.35;38.41;100193.17;1716756;82;21545;-60
2021/10/15 11:21:21;;;;;;;10.30;6.30;;;;;;;14.40;36.72;100201.70;1688149;82;21939;-60
2021/10/15 11:23:48;;;;;;;6.33;4.75;;;;;;;14.54;37.90;100192.22;1726548;82;21488;-58
2021/10/15 11:26:15;;;;;;;6.45;4.70;;;;;;;14.53;37.33;100189.20;1721748;82;21813;-58
2021/10/15 11:28:42;;;;;;;5.95;5.35;;;;;;;14.52;36.64;100192.77;1718916;82;21607;-59
2021/10/15 11:31:17;;;;;;;6.28;4.85;;;;;;;14.61;37.38;100180.42;1717137;82;21453;-60
2021/10/15 11:33:40;;;;;;;6.50;5.47;;;;;;;14.63;37.10;100176.39;1722389;81;21498;-59
2021/10/15 11:36:08;;;;;;;6.60;5.37;;;;;;;14.63;36.87;100180.36;1712891;82;21641;-59
2021/10/15 11:38:35;;;;;;;6.03;4.95;;;;;;;14.55;36.92;100182.89;1715573;82;21820;-60
2021/10/15 11:41:09;;;;;;;6.00;5.40;;;;;;;14.50;36.95;100176.11;1711950;82;21614;-60
2021/10/15 11:43:41;;;;;;;6.70;5.50;;;;;;;14.64;36.67;100167.05;1689658;83;21536;-61